TimeCST,TemperatureF,Dew PointF,Humidity,Sea Level PressureIn,VisibilityMPH,Wind Direction,Wind SpeedMPH,Gust SpeedMPH,PrecipitationIn,Events,Conditions,WindDirDegrees,DateUTC
12:16 AM,3.0,-0.9,84,30.35,10.0,NW,4.6,-,N/A,,Partly Cloudy,320,2013-11-27 06:16:00
12:53 AM,1.0,-2.9,83,30.45,10.0,West,4.6,-,N/A,,Clear,260,2013-11-27 06:53:00
1:53 AM,1.0,-2.9,83,30.43,10.0,WNW,3.5,-,N/A,,Clear,300,2013-11-27 07:53:00
2:53 AM,-0.9,-6.0,79,30.44,10.0,Calm,Calm,-,N/A,,Clear,0,2013-11-27 08:53:00
3:53 AM,1.0,-4.0,79,30.41,10.0,Calm,Calm,-,N/A,,Clear,0,2013-11-27 09:53:00
4:53 AM,1.0,-2.9,83,30.40,10.0,Calm,Calm,-,N/A,,Partly Cloudy,0,2013-11-27 10:53:00
5:53 AM,-0.0,-5.1,79,30.40,10.0,Calm,Calm,-,N/A,,Mostly Cloudy,0,2013-11-27 11:53:00
6:51 AM,1.4,-2.2,85,30.26,10.0,SE,3.5,-,N/A,,Scattered Clouds,130,2013-11-27 12:51:00
6:53 AM,1.9,-2.0,83,30.38,10.0,SE,3.5,-,N/A,,Partly Cloudy,130,2013-11-27 12:53:00
7:53 AM,3.0,1.0,91,30.37,10.0,SSE,4.6,-,N/A,,Scattered Clouds,150,2013-11-27 13:53:00
8:53 AM,8.1,5.0,87,30.36,9.0,SSE,8.1,-,N/A,,Overcast,150,2013-11-27 14:53:00
9:53 AM,10.0,7.0,87,30.32,10.0,SSE,12.7,-,N/A,,Overcast,150,2013-11-27 15:53:00
10:51 AM,10.4,8.6,92,30.19,7.0,SSE,9.2,-,0.00,,Overcast,160,2013-11-27 16:51:00
10:53 AM,10.9,8.1,88,30.30,7.0,South,10.4,-,0.00,,Overcast,170,2013-11-27 16:53:00
11:32 AM,12.0,8.1,84,30.15,8.0,SE,12.7,-,0.00,,Overcast,140,2013-11-27 17:32:00
11:44 AM,12.9,9.0,84,30.14,5.0,SSE,13.8,-,0.00,Snow,Light Snow,160,2013-11-27 17:44:00
11:53 AM,12.0,8.1,84,30.24,6.0,SSE,16.1,-,0.00,Snow,Light Snow,160,2013-11-27 17:53:00
12:12 PM,12.0,9.0,88,30.10,1.8,SE,16.1,-,0.00,Snow,Light Snow,140,2013-11-27 18:12:00
12:37 PM,12.9,10.0,88,30.09,1.5,SSE,16.1,-,0.00,Snow,Light Snow,150,2013-11-27 18:37:00
12:43 PM,12.9,10.0,88,30.08,3.0,SSE,13.8,-,0.00,Snow,Light Snow,150,2013-11-27 18:43:00
12:53 PM,12.9,9.0,84,30.19,8.0,SSE,15.0,-,0.00,,Overcast,150,2013-11-27 18:53:00
1:22 PM,14.0,10.0,84,30.07,7.0,SSE,10.4,-,N/A,,Overcast,150,2013-11-27 19:22:00
1:53 PM,14.0,9.0,80,30.16,10.0,SE,13.8,-,N/A,,Overcast,140,2013-11-27 19:53:00
2:07 PM,14.0,9.0,80,30.04,10.0,SE,10.4,-,N/A,,Overcast,140,2013-11-27 20:07:00
2:53 PM,15.1,9.0,77,30.11,10.0,SE,12.7,-,N/A,,Overcast,130,2013-11-27 20:53:00
3:53 PM,15.1,8.1,74,30.10,10.0,SE,15.0,-,N/A,,Overcast,130,2013-11-27 21:53:00
4:53 PM,16.0,7.0,68,30.13,10.0,SE,9.2,-,N/A,,Overcast,140,2013-11-27 22:53:00
5:53 PM,16.0,7.0,68,30.14,10.0,SSE,10.4,-,N/A,,Overcast,160,2013-11-27 23:53:00
6:53 PM,16.0,7.0,68,30.13,10.0,SSE,11.5,-,N/A,,Overcast,150,2013-11-28 00:53:00
7:53 PM,17.1,7.0,65,30.12,10.0,SE,8.1,-,N/A,,Overcast,140,2013-11-28 01:53:00
8:53 PM,17.1,8.1,68,30.11,10.0,SE,8.1,-,N/A,,Overcast,140,2013-11-28 02:53:00
9:53 PM,17.1,7.0,65,30.11,10.0,SE,5.8,-,N/A,,Overcast,140,2013-11-28 03:53:00
10:53 PM,17.1,9.0,71,30.11,10.0,South,3.5,-,N/A,,Overcast,170,2013-11-28 04:53:00
11:53 PM,18.0,10.0,71,30.13,10.0,Calm,Calm,-,N/A,,Overcast,0,2013-11-28 05:53:00